createdAt,value
2019-05-09T00:01:04.253Z,38.02
2019-05-09T00:03:39.291Z,32.48
2019-05-09T00:06:13.878Z,38.88
2019-05-09T00:08:50.018Z,42.20
2019-05-09T00:11:24.695Z,33.33
2019-05-09T00:13:59.093Z,42.08
2019-05-09T00:16:35.031Z,40.55
2019-05-09T00:19:08.930Z,37.63
2019-05-09T00:27:03.637Z,35.92
2019-05-09T00:29:38.437Z,36.25
2019-05-09T00:32:17.007Z,37.50
2019-05-09T00:35:03.694Z,42.20
2019-05-09T00:37:53.715Z,43.42
2019-05-09T00:40:29.131Z,40.12
2019-05-09T00:43:03.925Z,43.02
2019-05-09T00:45:39.704Z,41.55
2019-05-09T00:48:16.239Z,39.58
2019-05-09T00:50:50.370Z,42.53
2019-05-09T00:55:57.856Z,37.53
2019-05-09T00:58:33.435Z,38.67
2019-05-09T01:01:13.205Z,38.48
2019-05-09T01:03:46.464Z,39.90
2019-05-09T01:06:20.929Z,35.30
2019-05-09T01:08:56.733Z,39.15
2019-05-09T01:11:39.826Z,42.20
2019-05-09T01:14:16.752Z,39.75
2019-05-09T01:16:49.860Z,40.17
2019-05-09T01:19:26.903Z,42.67
2019-05-09T01:22:04.005Z,39.25
2019-05-09T01:24:38.246Z,35.80
2019-05-09T01:27:14.079Z,42.60
2019-05-09T01:29:48.242Z,35.15
2019-05-09T01:32:34.274Z,39.65
2019-05-09T01:35:07.770Z,35.28
2019-05-09T01:37:43.385Z,39.98
2019-05-09T01:40:17.738Z,36.93
2019-05-09T01:42:53.675Z,43.68
2019-05-09T01:45:27.658Z,42.13
2019-05-09T01:48:03.319Z,42.78
2019-05-09T01:50:37.377Z,41.28
2019-05-09T01:53:13.394Z,39.15
2019-05-09T01:56:04.453Z,39.85
2019-05-09T01:58:38.977Z,34.58
2019-05-09T02:01:13.412Z,39.70
2019-05-09T02:03:47.883Z,41.02
2019-05-09T02:06:24.130Z,39.20
2019-05-09T02:08:57.302Z,43.42
2019-05-09T02:11:41.657Z,39.38
2019-05-09T02:14:06.667Z,34.58
2019-05-09T02:16:43.229Z,40.48
2019-05-09T02:19:18.962Z,35.45
2019-05-09T02:21:53.123Z,38.73
2019-05-09T02:24:27.594Z,37.70
2019-05-09T02:27:03.798Z,42.17
2019-05-09T02:29:37.069Z,37.67
2019-05-09T02:32:11.132Z,38.75
2019-05-09T02:34:45.623Z,38.35
2019-05-09T02:37:21.239Z,41.83
2019-05-09T02:39:58.950Z,41.33
2019-05-09T02:42:31.239Z,37.25
2019-05-09T02:45:08.349Z,43.73
2019-05-09T02:47:41.307Z,37.28
2019-05-09T02:50:19.205Z,40.25
2019-05-09T02:52:51.679Z,42.05
2019-05-09T02:55:25.430Z,42.45
2019-05-09T02:58:00.739Z,37.90
2019-05-09T03:00:45.230Z,43.10
2019-05-09T03:03:32.024Z,43.58
2019-05-09T03:06:09.123Z,43.92
2019-05-09T03:08:44.501Z,49.45
2019-05-09T03:11:18.874Z,45.23
2019-05-09T03:14:19.547Z,44.35
2019-05-09T03:19:48.527Z,45.38
2019-05-09T03:22:21.786Z,46.18
2019-05-09T03:24:58.648Z,48.98
2019-05-09T03:27:32.024Z,51.28
2019-05-09T03:30:11.948Z,49.58
2019-05-09T03:32:53.630Z,54.00
2019-05-09T03:38:10.390Z,54.30
2019-05-09T03:40:44.271Z,52.95
2019-05-09T03:45:58.297Z,54.25
2019-05-09T03:48:38.579Z,57.70
2019-05-09T03:51:12.697Z,57.08
2019-05-09T03:53:48.367Z,53.48
2019-05-09T03:56:27.352Z,52.38
2019-05-09T03:59:01.708Z,58.30
2019-05-09T04:01:38.035Z,55.45
2019-05-09T04:04:11.278Z,58.55
2019-05-09T04:06:47.818Z,62.00
2019-05-09T04:09:21.061Z,59.58
2019-05-09T04:11:55.120Z,58.58
2019-05-09T04:14:33.005Z,57.75
2019-05-09T04:17:07.853Z,57.55
2019-05-09T04:19:41.810Z,64.92
2019-05-09T04:22:17.999Z,55.00
2019-05-09T04:40:46.641Z,54.45
2019-05-09T04:43:32.249Z,47.35
2019-05-09T04:46:04.098Z,51.05
2019-05-09T04:48:38.072Z,48.45
2019-05-09T04:53:45.046Z,45.90
2019-05-09T04:56:29.308Z,48.75
2019-05-09T04:59:03.665Z,44.67
2019-05-09T05:01:44.766Z,47.98
2019-05-09T05:04:19.780Z,50.63
2019-05-09T05:06:58.493Z,50.38
2019-05-09T05:09:32.741Z,47.27
2019-05-09T05:12:08.445Z,48.45
2019-05-09T05:14:42.553Z,46.18
2019-05-09T05:19:50.748Z,50.12
2019-05-09T05:22:28.519Z,56.73
2019-05-09T05:25:05.817Z,51.15
2019-05-09T05:27:39.691Z,46.77
2019-05-09T05:30:14.003Z,45.35
2019-05-09T05:32:58.309Z,47.03
2019-05-09T05:35:33.762Z,49.48
2019-05-09T05:38:08.560Z,45.73
2019-05-09T05:40:46.318Z,56.08
2019-05-09T05:43:19.231Z,47.35
2019-05-09T05:46:00.067Z,55.38
2019-05-09T05:48:40.996Z,49.30
2019-05-09T05:51:23.372Z,51.60
2019-05-09T05:54:01.304Z,48.42
2019-05-09T05:59:30.387Z,57.75
2019-05-09T06:05:40.658Z,54.73
2019-05-09T06:08:17.606Z,51.73
2019-05-09T06:10:51.431Z,55.50
2019-05-09T06:13:27.561Z,54.63
2019-05-09T06:16:00.911Z,53.78
2019-05-09T06:21:10.446Z,53.28
2019-05-09T06:23:44.716Z,55.48
2019-05-09T06:26:18.998Z,56.28
2019-05-09T06:28:53.298Z,52.20
2019-05-09T06:31:28.417Z,52.83
2019-05-09T06:34:03.055Z,56.10
2019-05-09T06:36:38.996Z,56.40
2019-05-09T06:39:12.736Z,51.28
2019-05-09T06:41:48.356Z,52.20
2019-05-09T06:44:28.180Z,54.15
2019-05-09T06:47:08.332Z,57.08
2019-05-09T06:49:44.842Z,61.20
2019-05-09T06:52:22.026Z,56.33
2019-05-09T06:54:58.058Z,60.75
2019-05-09T06:57:31.933Z,57.58
2019-05-09T07:00:08.390Z,59.00
2019-05-09T07:02:58.407Z,66.22
2019-05-09T07:05:49.609Z,65.22
2019-05-09T07:08:27.286Z,61.75
2019-05-09T07:11:01.483Z,60.85
2019-05-09T07:13:39.163Z,50.28
2019-05-09T07:16:13.024Z,57.35
2019-05-09T07:18:48.437Z,52.48
2019-05-09T07:21:22.743Z,53.78
2019-05-09T07:24:03.122Z,54.10
2019-05-09T07:26:41.195Z,53.65
2019-05-09T07:29:15.098Z,52.90
2019-05-09T07:34:30.243Z,59.42
2019-05-09T07:37:04.431Z,57.25
2019-05-09T07:39:39.740Z,60.35
2019-05-09T07:42:13.749Z,58.35
2019-05-09T07:47:21.660Z,55.95
2019-05-09T07:49:58.381Z,64.70
2019-05-09T07:52:31.427Z,58.40
2019-05-09T07:55:08.472Z,56.90
2019-05-09T07:57:46.369Z,61.20
2019-05-09T08:00:18.396Z,79.37
2019-05-09T08:02:52.551Z,61.58
2019-05-09T08:05:31.637Z,63.17
2019-05-09T08:08:08.029Z,60.88
2019-05-09T08:10:42.658Z,84.97
2019-05-09T08:13:21.355Z,57.62
2019-05-09T08:15:52.311Z,68.07
2019-05-09T08:18:28.052Z,63.65
2019-05-09T08:21:02.763Z,57.00
2019-05-09T08:23:37.974Z,51.25
2019-05-09T08:26:12.319Z,70.92
2019-05-09T08:28:47.980Z,61.53
2019-05-09T08:31:21.874Z,80.28
2019-05-09T08:33:59.012Z,67.12
2019-05-09T08:36:31.936Z,86.53
2019-05-09T08:39:08.248Z,70.65
2019-05-09T08:41:42.775Z,69.92
2019-05-09T08:44:18.629Z,65.55
2019-05-09T08:46:52.276Z,69.87
2019-05-09T08:49:28.636Z,75.03
2019-05-09T08:52:13.104Z,64.90
2019-05-09T08:54:43.033Z,74.12
2019-05-09T08:57:18.264Z,74.03
2019-05-09T08:59:52.706Z,72.92
2019-05-09T09:02:28.313Z,77.35
2019-05-09T09:05:02.612Z,71.37
2019-05-09T09:07:37.905Z,71.75
2019-05-09T09:10:12.703Z,68.60
2019-05-09T09:12:47.735Z,72.67
2019-05-09T09:15:22.291Z,72.95
2019-05-09T09:17:57.871Z,74.80
2019-05-09T09:20:32.563Z,67.12
2019-05-09T09:23:09.940Z,71.12
2019-05-09T09:25:43.735Z,77.87
2019-05-09T09:30:51.775Z,81.95
2019-05-09T09:33:27.892Z,79.37
2019-05-09T09:36:01.071Z,71.60
2019-05-09T09:41:07.944Z,74.65
2019-05-09T09:43:42.443Z,100.12
2019-05-09T09:46:18.162Z,80.83
2019-05-09T09:48:51.727Z,84.10
2019-05-09T09:51:27.469Z,85.55
2019-05-09T09:54:00.951Z,80.30
2019-05-09T09:56:34.754Z,79.07
2019-05-09T10:02:03.932Z,71.17
2019-05-09T10:04:38.183Z,76.25
2019-05-09T10:07:12.376Z,52.53
2019-05-09T10:09:47.976Z,63.25
2019-05-09T10:12:22.274Z,76.70
2019-05-09T10:15:00.744Z,119.10
2019-05-09T10:17:41.553Z,109.32
2019-05-09T10:20:31.721Z,112.95
2019-05-09T10:23:17.007Z,118.15
2019-05-09T10:25:41.408Z,100.70
2019-05-09T10:28:21.228Z,104.70
2019-05-09T10:30:51.085Z,98.40
2019-05-09T10:33:25.123Z,105.72
2019-05-09T10:36:04.188Z,80.45
2019-05-09T10:38:34.749Z,83.42
2019-05-09T10:41:11.299Z,85.62
2019-05-09T10:43:45.639Z,78.97
2019-05-09T10:46:39.122Z,80.57
2019-05-09T10:49:03.518Z,74.77
2019-05-09T10:51:37.929Z,80.10
2019-05-09T10:54:12.463Z,79.58
2019-05-09T10:56:48.528Z,77.35
2019-05-09T10:59:22.155Z,99.15
2019-05-09T11:01:58.003Z,87.92
2019-05-09T11:04:31.777Z,84.85
2019-05-09T11:07:08.116Z,76.02
2019-05-09T11:09:40.903Z,74.72
2019-05-09T11:12:15.000Z,71.85
2019-05-09T11:14:49.325Z,84.62
2019-05-09T11:17:23.370Z,75.37
2019-05-09T11:19:58.799Z,74.25
2019-05-09T11:22:32.560Z,71.37
2019-05-09T11:27:42.740Z,72.42
2019-05-09T11:30:18.144Z,77.12
2019-05-09T11:32:52.409Z,73.33
2019-05-09T11:35:26.617Z,78.02
2019-05-09T11:38:00.853Z,68.45
2019-05-09T11:40:38.049Z,71.90
2019-05-09T11:43:12.783Z,77.85
2019-05-09T11:45:47.919Z,76.70
2019-05-09T11:48:22.408Z,74.07
2019-05-09T11:50:57.922Z,74.45
2019-05-09T11:53:32.425Z,66.60
2019-05-09T11:56:08.240Z,72.62
2019-05-09T11:58:41.653Z,61.30
2019-05-09T12:01:18.583Z,69.55
2019-05-09T12:03:54.242Z,61.55
2019-05-09T12:06:29.372Z,67.97
2019-05-09T12:09:03.641Z,71.00
2019-05-09T12:11:41.349Z,89.20
2019-05-09T12:14:13.369Z,91.80
2019-05-09T12:16:48.227Z,81.75
2019-05-09T12:19:24.147Z,81.87
2019-05-09T12:22:03.384Z,75.22
2019-05-09T12:28:09.632Z,69.65
2019-05-09T12:30:53.915Z,75.45
2019-05-09T12:33:28.242Z,77.03
2019-05-09T12:36:01.572Z,77.27
2019-05-09T12:38:35.641Z,77.03
2019-05-09T12:41:09.650Z,73.85
2019-05-09T12:46:16.410Z,67.05
2019-05-09T12:48:51.335Z,70.67
2019-05-09T12:51:27.907Z,70.50
2019-05-09T12:54:01.045Z,74.00
2019-05-09T12:56:38.319Z,73.52
2019-05-09T12:59:11.330Z,67.10
2019-05-09T13:01:49.173Z,79.27
2019-05-09T13:04:28.878Z,71.65
2019-05-09T13:07:01.496Z,73.35
2019-05-09T13:09:36.007Z,80.12
2019-05-09T13:12:11.778Z,75.65
2019-05-09T13:14:48.922Z,80.72
2019-05-09T13:17:27.219Z,111.88
2019-05-09T13:20:02.714Z,93.40
2019-05-09T13:22:37.213Z,82.27
2019-05-09T13:25:11.986Z,79.95
2019-05-09T13:27:47.913Z,78.55
2019-05-09T13:30:22.508Z,74.53
2019-05-09T13:32:57.080Z,76.90
2019-05-09T13:35:34.783Z,75.03
2019-05-09T13:38:13.197Z,69.67
2019-05-09T13:40:59.378Z,75.92
2019-05-09T13:43:45.782Z,78.78
2019-05-09T13:46:11.195Z,71.82
2019-05-09T13:49:04.338Z,75.42
2019-05-09T13:51:29.378Z,79.25
2019-05-09T13:54:04.554Z,74.07
2019-05-09T13:56:38.868Z,76.20
2019-05-09T14:02:06.195Z,75.22
2019-05-09T14:04:41.910Z,67.95
2019-05-09T14:07:16.132Z,72.30
2019-05-09T14:09:54.365Z,75.25
2019-05-09T14:12:30.841Z,74.07
2019-05-09T14:15:04.928Z,67.35
2019-05-09T14:17:52.453Z,82.82
2019-05-09T14:20:19.416Z,80.65
2019-05-09T14:22:57.628Z,70.75
2019-05-09T14:25:42.637Z,73.97
2019-05-09T14:28:20.027Z,77.78
2019-05-09T14:30:54.191Z,94.83
2019-05-09T14:33:34.138Z,79.62
2019-05-09T14:36:08.934Z,73.65
2019-05-09T14:38:43.700Z,77.67
2019-05-09T14:41:21.259Z,76.42
2019-05-09T14:44:04.292Z,77.58
2019-05-09T14:46:49.630Z,79.00
2019-05-09T14:49:39.397Z,80.97
2019-05-09T14:52:10.872Z,77.10
2019-05-09T14:54:48.106Z,70.35
2019-05-09T14:57:31.070Z,73.87
2019-05-09T15:00:07.726Z,74.82
2019-05-09T15:05:40.401Z,69.10
2019-05-09T15:08:23.097Z,71.42
2019-05-09T15:10:58.192Z,74.53
2019-05-09T15:13:32.480Z,75.30
2019-05-09T15:16:08.744Z,70.60
2019-05-09T15:18:43.382Z,72.15
2019-05-09T15:21:19.249Z,67.70
2019-05-09T15:23:58.556Z,65.47
2019-05-09T15:26:30.821Z,73.35
2019-05-09T15:29:10.213Z,70.52
2019-05-09T15:34:39.161Z,65.92
2019-05-09T15:37:14.705Z,71.07
2019-05-09T15:39:48.778Z,77.55
2019-05-09T15:42:22.794Z,76.82
2019-05-09T15:45:09.814Z,86.67
2019-05-09T15:47:48.262Z,82.50
2019-05-09T15:50:27.869Z,96.60
2019-05-09T15:53:01.223Z,97.35
2019-05-09T15:55:37.751Z,98.37
2019-05-09T15:58:13.212Z,101.50
2019-05-09T16:00:47.916Z,96.80
2019-05-09T16:03:23.993Z,92.35
2019-05-09T16:05:58.551Z,96.30
2019-05-09T16:08:33.240Z,91.22
2019-05-09T16:11:17.955Z,93.67
2019-05-09T16:13:48.825Z,97.05
2019-05-09T16:16:22.876Z,104.17
2019-05-09T16:21:31.298Z,90.40
2019-05-09T16:24:07.871Z,81.15
2019-05-09T16:26:41.367Z,75.80
2019-05-09T16:29:17.798Z,76.10
2019-05-09T16:31:54.904Z,76.53
2019-05-09T16:34:28.914Z,65.55
2019-05-09T16:37:03.076Z,71.37
2019-05-09T16:39:37.905Z,71.37
2019-05-09T16:42:12.358Z,66.02
2019-05-09T16:44:48.085Z,70.03
2019-05-09T16:47:22.678Z,67.50
2019-05-09T16:49:58.031Z,69.37
2019-05-09T16:52:43.132Z,79.90
2019-05-09T16:55:12.328Z,71.17
2019-05-09T16:57:46.708Z,69.60
2019-05-09T17:00:27.425Z,70.30
2019-05-09T17:03:01.411Z,74.72
2019-05-09T17:05:37.401Z,74.37
2019-05-09T17:08:12.437Z,78.83
2019-05-09T17:10:48.571Z,73.85
2019-05-09T17:13:22.785Z,79.77
2019-05-09T17:15:57.101Z,75.65
2019-05-09T17:18:31.176Z,78.17
2019-05-09T17:21:21.405Z,66.82
2019-05-09T17:23:51.423Z,73.90
2019-05-09T17:26:28.212Z,70.72
2019-05-09T17:29:01.212Z,69.50
2019-05-09T17:31:35.402Z,64.77
2019-05-09T17:34:09.957Z,71.40
2019-05-09T17:36:44.090Z,75.95
2019-05-09T17:39:18.591Z,70.62
2019-05-09T17:41:54.353Z,71.87
2019-05-09T17:44:28.790Z,66.45
2019-05-09T17:47:03.207Z,64.65
2019-05-09T17:49:37.545Z,71.42
2019-05-09T17:52:11.490Z,73.50
2019-05-09T17:54:45.893Z,68.95
2019-05-09T17:57:20.318Z,80.50
2019-05-09T17:59:54.043Z,65.22
2019-05-09T18:02:29.153Z,69.72
2019-05-09T18:05:03.675Z,69.97
2019-05-09T18:07:37.764Z,76.72
2019-05-09T18:10:12.131Z,69.45
2019-05-09T18:12:47.970Z,60.83
2019-05-09T18:15:22.238Z,67.15
2019-05-09T18:17:58.614Z,67.53
2019-05-09T18:20:32.162Z,70.10
2019-05-09T18:23:08.212Z,66.10
2019-05-09T18:25:42.077Z,63.52
2019-05-09T18:28:17.446Z,61.28
2019-05-09T18:30:51.699Z,63.33
2019-05-09T18:33:29.293Z,66.85
2019-05-09T18:36:03.350Z,65.00
2019-05-09T18:38:38.729Z,68.52
2019-05-09T18:41:13.270Z,72.58
2019-05-09T18:43:47.929Z,66.82
2019-05-09T18:46:22.146Z,74.45
2019-05-09T18:48:56.502Z,72.50
2019-05-09T18:51:30.676Z,79.30
2019-05-09T18:54:05.185Z,73.78
2019-05-09T18:56:39.281Z,74.50
2019-05-09T18:59:13.126Z,76.33
2019-05-09T19:01:48.268Z,67.90
2019-05-09T19:06:54.265Z,64.35
2019-05-09T19:09:27.999Z,59.95
2019-05-09T19:12:02.101Z,68.17
2019-05-09T19:14:36.589Z,85.20
2019-05-09T19:17:27.241Z,74.60
2019-05-09T19:20:02.458Z,67.72
2019-05-09T19:22:36.676Z,67.80
2019-05-09T19:25:10.749Z,64.15
2019-05-09T19:27:44.541Z,63.60
2019-05-09T19:30:19.040Z,68.35
2019-05-09T19:32:53.484Z,66.28
2019-05-09T19:35:27.699Z,69.60
2019-05-09T19:38:02.092Z,64.37
2019-05-09T19:40:36.270Z,68.10
2019-05-09T19:43:10.598Z,65.80
2019-05-09T19:45:44.321Z,66.35
2019-05-09T19:50:50.927Z,68.52
2019-05-09T19:53:25.244Z,65.52
2019-05-09T19:55:59.562Z,66.60
2019-05-09T19:58:33.926Z,66.20
2019-05-09T20:01:08.110Z,65.78
2019-05-09T20:03:43.134Z,60.70
2019-05-09T20:06:17.188Z,67.87
2019-05-09T20:08:51.421Z,63.85
2019-05-09T20:11:43.002Z,64.87
2019-05-09T20:14:21.118Z,60.65
2019-05-09T20:16:56.708Z,59.40
2019-05-09T20:19:30.914Z,64.60
2019-05-09T20:22:05.058Z,60.33
2019-05-09T20:24:38.929Z,63.85
2019-05-09T20:29:46.070Z,66.75
2019-05-09T20:32:20.199Z,59.10
2019-05-09T20:34:54.206Z,64.97
2019-05-09T20:37:28.794Z,57.30
2019-05-09T20:40:03.243Z,57.85
2019-05-09T20:42:37.766Z,55.30
2019-05-09T20:45:13.453Z,60.30
2019-05-09T20:47:48.040Z,59.08
2019-05-09T20:50:23.368Z,58.58
2019-05-09T20:53:09.315Z,57.90
2019-05-09T20:55:33.509Z,54.45
2019-05-09T20:58:08.206Z,59.00
2019-05-09T21:00:42.556Z,56.60
2019-05-09T21:03:17.058Z,63.05
2019-05-09T21:05:51.551Z,62.98
2019-05-09T21:08:25.834Z,60.35
2019-05-09T21:11:00.126Z,60.12
2019-05-09T21:13:47.543Z,59.77
2019-05-09T21:16:10.581Z,55.95
2019-05-09T21:18:44.601Z,62.10
2019-05-09T21:21:18.591Z,61.42
2019-05-09T21:23:52.569Z,64.62
2019-05-09T21:26:27.187Z,56.88
2019-05-09T21:29:01.622Z,64.70
2019-05-09T21:31:36.121Z,55.58
2019-05-09T21:34:10.344Z,56.48
2019-05-09T21:36:44.976Z,54.55
2019-05-09T21:39:19.111Z,54.98
2019-05-09T21:41:53.376Z,58.98
2019-05-09T21:44:26.914Z,53.55
2019-05-09T21:47:01.540Z,59.08
2019-05-09T21:49:36.048Z,61.55
2019-05-09T21:52:10.060Z,59.20
2019-05-09T21:54:43.805Z,60.33
2019-05-09T21:59:50.534Z,60.35
2019-05-09T22:02:24.683Z,60.90
2019-05-09T22:04:58.930Z,60.70
2019-05-09T22:07:33.302Z,62.75
2019-05-09T22:10:08.710Z,59.42
2019-05-09T22:12:43.009Z,60.92
2019-05-09T22:15:17.664Z,65.00
2019-05-09T22:17:51.581Z,63.38
2019-05-09T22:20:26.081Z,63.05
2019-05-09T22:22:59.856Z,54.65
2019-05-09T22:28:06.494Z,55.43
2019-05-09T22:30:40.636Z,63.70
2019-05-09T22:33:14.546Z,64.67
2019-05-09T22:38:20.808Z,155.95
2019-05-09T22:40:54.797Z,171.80
2019-05-09T22:43:28.965Z,116.12
2019-05-09T22:46:03.026Z,88.27
2019-05-09T22:48:36.962Z,75.92
2019-05-09T22:51:11.057Z,66.67
2019-05-09T22:53:45.246Z,69.03
2019-05-09T22:56:21.034Z,68.65
2019-05-09T22:58:55.041Z,64.90
2019-05-09T23:01:29.262Z,63.60
2019-05-09T23:04:03.340Z,63.73
2019-05-09T23:06:38.198Z,61.75
2019-05-09T23:09:12.440Z,66.15
2019-05-09T23:11:46.677Z,60.00
2019-05-09T23:14:21.776Z,61.10
2019-05-09T23:16:55.653Z,60.38
2019-05-09T23:19:29.933Z,60.73
2019-05-09T23:22:03.964Z,59.53
2019-05-09T23:24:39.128Z,62.15
2019-05-09T23:27:14.591Z,65.57
2019-05-09T23:29:48.737Z,61.42
2019-05-09T23:32:26.718Z,64.40
2019-05-09T23:35:01.137Z,55.80
2019-05-09T23:37:35.459Z,61.23
2019-05-09T23:40:10.151Z,58.83
2019-05-09T23:42:44.581Z,63.28
2019-05-09T23:45:18.811Z,80.77
2019-05-09T23:47:53.084Z,64.32
2019-05-09T23:50:27.091Z,66.75
2019-05-09T23:53:01.563Z,64.30
2019-05-09T23:55:52.536Z,66.77
2019-05-09T23:58:43.089Z,64.72
